Time;durP1;ratioP1;P1;durP2;ratioP2;P2;SDS_P1;SDS_P2;PMS_P1;PMS_P2;Temp;Humidity;BMP_temperature;BMP_pressure;BME280_temperature;BME280_humidity;BME280_pressure;Samples;Min_cycle;Max_cycle;Signal;HPM_P1;HPM_P2
2023/02/07 00:00:14;;;;;;;;;15.25;15.25;;;;;3.21;71.34;102661.94;4974157;28;46206;-74
2023/02/07 00:02:47;;;;;;;;;15.75;15.75;;;;;3.23;71.67;102677.63;4975148;28;45391;-77
2023/02/07 00:05:14;;;;;;;;;15.50;15.50;;;;;3.19;71.36;102667.97;4974792;28;45386;-78
2023/02/07 00:07:40;;;;;;;;;14.00;12.75;;;;;3.14;71.21;102662.66;4976647;28;45305;-77
2023/02/07 00:10:07;;;;;;;;;13.25;13.25;;;;;3.16;71.27;102654.88;4975049;28;46126;-76
2023/02/07 00:12:33;;;;;;;;;17.00;15.25;;;;;3.17;71.32;102662.72;4974039;28;45396;-74
2023/02/07 00:15:00;;;;;;;;;16.00;16.00;;;;;3.10;70.94;102652.13;4976059;28;45366;-77
2023/02/07 00:17:27;;;;;;;;;17.50;17.00;;;;;3.10;71.86;102657.31;4975058;28;45617;-76
2023/02/07 00:19:53;;;;;;;;;17.50;17.25;;;;;3.10;71.80;102657.31;4974372;28;46428;-76
2023/02/07 00:22:18;;;;;;;;;15.00;15.00;;;;;2.86;71.26;102628.19;4992297;28;49795;-74
2023/02/07 00:24:43;;;;;;;;;14.75;14.75;;;;;3.06;71.85;102656.38;4980622;28;50230;-77
2023/02/07 00:27:09;;;;;;;;;18.75;17.50;;;;;3.04;71.85;102653.72;4968381;28;45693;-77
2023/02/07 00:29:34;;;;;;;;;18.00;18.00;;;;;2.95;71.63;102631.84;4962056;28;45919;-77
2023/02/07 00:31:59;;;;;;;;;13.75;13.75;;;;;2.98;71.20;102635.38;4970739;28;45632;-77
2023/02/07 00:34:25;;;;;;;;;14.00;14.00;;;;;2.98;71.01;102643.19;4976193;28;45453;-75
2023/02/07 00:36:50;;;;;;;;;14.25;14.25;;;;;2.96;71.26;102638.81;4975680;28;45484;-79
2023/02/07 00:39:16;;;;;;;;;16.00;15.25;;;;;2.94;71.34;102641.34;5009369;28;48403;-75
2023/02/07 00:41:43;;;;;;;;;19.50;19.25;;;;;2.91;72.01;102643.88;5044940;27;45472;-77
2023/02/07 00:44:10;;;;;;;;;17.25;17.25;;;;;2.90;71.83;102640.41;4977497;28;45352;-78
2023/02/07 00:46:36;;;;;;;;;15.75;15.75;;;;;2.82;71.53;102633.25;4979001;28;44833;-77
2023/02/07 00:49:03;;;;;;;;;18.00;18.00;;;;;2.83;71.20;102637.59;4961038;28;45277;-77
2023/02/07 00:51:28;;;;;;;;;18.75;17.50;;;;;2.80;71.67;102621.94;4958363;28;45351;-76
2023/02/07 00:53:55;;;;;;;;;13.75;13.25;;;;;2.87;71.61;102636.84;4974667;28;45377;-76
2023/02/07 00:56:22;;;;;;;;;16.50;14.50;;;;;2.80;70.86;102625.44;4974841;28;45260;-77
2023/02/07 00:58:48;;;;;;;;;13.00;13.00;;;;;2.86;71.57;102643.78;4973074;28;45924;-76
2023/02/07 01:01:14;;;;;;;;;11.25;11.25;;;;;2.85;71.77;102644.63;4973555;28;45362;-76
2023/02/07 01:03:39;;;;;;;;;14.25;14.25;;;;;2.83;71.67;102643.69;4973158;28;45505;-74
2023/02/07 01:06:05;;;;;;;;;9.50;9.50;;;;;2.79;71.61;102647.06;4977515;28;45375;-75
2023/02/07 01:08:31;;;;;;;;;12.00;12.00;;;;;2.75;71.61;102633.09;4977186;28;46072;-76
2023/02/07 01:11:01;;;;;;;;;16.25;16.25;;;;;2.72;71.67;102624.34;4973891;28;45533;-76
2023/02/07 01:13:27;;;;;;;;;17.25;16.75;;;;;2.78;71.68;102635.75;4974671;28;45341;-78
2023/02/07 01:15:52;;;;;;;;;16.00;15.75;;;;;2.78;72.06;102643.56;4975045;28;45556;-76
2023/02/07 01:18:18;;;;;;;;;17.00;17.00;;;;;2.72;71.43;102634.75;4973575;28;46243;-74
2023/02/07 01:20:43;;;;;;;;;17.00;17.00;;;;;2.78;71.55;102637.50;4960515;28;45464;-72
2023/02/07 01:23:10;;;;;;;;;14.50;14.50;;;;;2.81;71.47;102634.09;4953000;28;45492;-74
2023/02/07 01:25:37;;;;;;;;;18.75;18.00;;;;;2.67;71.52;102611.22;4954179;28;45375;-71
2023/02/07 01:28:03;;;;;;;;;12.50;12.50;;;;;2.78;71.39;102627.09;4965844;28;46977;-73
2023/02/07 01:30:29;;;;;;;;;18.00;17.00;;;;;2.73;71.06;102616.56;4973617;28;45244;-72
2023/02/07 01:32:54;;;;;;;;;12.00;11.75;;;;;2.78;71.90;102629.72;4971642;28;45634;-72
2023/02/07 01:35:20;;;;;;;;;20.25;16.50;;;;;2.77;72.02;102626.22;4973139;28;45820;-72
2023/02/07 01:37:45;;;;;;;;;17.50;17.25;;;;;2.76;71.21;102624.44;4971493;28;45449;-72
2023/02/07 01:40:12;;;;;;;;;14.00;14.00;;;;;2.72;72.47;102619.16;4972503;28;45353;-77
2023/02/07 01:42:37;;;;;;;;;17.25;17.25;;;;;2.70;72.59;102636.44;4973637;28;45399;-74
2023/02/07 01:45:26;;;;;;;;;23.75;17.75;;;;;2.67;72.12;102634.63;4973510;28;45559;-77
2023/02/07 01:47:55;;;;;;;;;14.25;14.25;;;;;2.56;72.40;102616.13;4971467;28;47076;-74
2023/02/07 01:50:21;;;;;;;;;17.75;17.75;;;;;2.62;72.19;102626.69;4971951;28;45830;-76
2023/02/07 01:52:47;;;;;;;;;14.25;14.25;;;;;2.56;72.33;102613.53;4973057;28;45396;-74
2023/02/07 01:55:21;;;;;;;;;16.00;12.25;;;;;2.54;72.17;102616.94;4957740;28;45445;-72
2023/02/07 01:57:46;;;;;;;;;17.50;17.50;;;;;2.54;72.65;102617.81;4957838;28;45978;-71
2023/02/07 02:00:15;;;;;;;;;13.25;13.25;;;;;2.46;72.84;102614.13;4954979;28;45361;-73
2023/02/07 02:02:41;;;;;;;;;14.50;13.50;;;;;2.34;73.16;102602.59;4974709;28;45560;-75
2023/02/07 02:05:08;;;;;;;;;13.75;12.50;;;;;2.39;72.73;102618.31;4966298;28;45471;-76
2023/02/07 02:07:34;;;;;;;;;16.00;16.00;;;;;2.34;73.02;102618.16;4951611;28;47429;-77
2023/02/07 02:10:00;;;;;;;;;17.50;17.50;;;;;2.36;72.81;102613.03;4971088;28;45469;-74
2023/02/07 02:12:44;;;;;;;;;18.75;17.25;;;;;2.37;73.18;102612.19;4974386;28;45464;-72
2023/02/07 02:15:16;;;;;;;;;17.50;16.50;;;;;2.34;73.03;102609.50;4975194;28;45254;-75
2023/02/07 02:17:42;;;;;;;;;14.75;14.75;;;;;2.33;72.65;102595.63;4970618;28;46358;-73
2023/02/07 02:20:42;;;;;;;;;21.25;18.75;;;;;2.33;72.77;102597.38;4956321;28;45442;-73
2023/02/07 02:23:33;;;;;;;;;15.25;13.25;;;;;2.29;73.06;102596.38;5034360;28;45453;-74
2023/02/07 02:26:36;;;;;;;;;17.75;14.75;;;;;2.26;72.78;102596.31;4976237;28;45335;-73
2023/02/07 02:29:08;;;;;;;;;18.25;18.25;;;;;2.26;73.48;102582.47;4960870;28;45442;-73
2023/02/07 02:32:04;;;;;;;;;15.75;15.75;;;;;2.22;73.92;102580.63;4956378;28;45453;-73
2023/02/07 02:34:35;;;;;;;;;17.00;17.00;;;;;2.21;73.11;102581.47;4956426;28;45313;-74
2023/02/07 02:37:31;;;;;;;;;12.75;12.75;;;;;2.18;73.19;102580.53;4956266;28;45293;-75
2023/02/07 02:40:13;;;;;;;;;24.75;22.00;;;;;2.15;73.18;102582.16;4957813;28;46223;-75
2023/02/07 02:42:48;;;;;;;;;17.50;16.50;;;;;2.12;73.82;102579.47;4961178;28;45391;-74
2023/02/07 02:45:26;;;;;;;;;20.50;20.50;;;;;2.08;73.62;102588.88;4965028;28;45284;-73
2023/02/07 02:47:52;;;;;;;;;15.75;15.50;;;;;2.08;74.09;102586.28;4976265;28;45453;-73
2023/02/07 02:50:28;;;;;;;;;22.00;19.00;;;;;2.06;74.42;102590.56;4977387;28;47440;-74
2023/02/07 02:52:54;;;;;;;;;16.50;16.50;;;;;2.05;73.97;102586.22;4975537;28;45509;-76
2023/02/07 02:55:27;;;;;;;;;15.00;14.50;;;;;2.02;74.25;102580.94;4974887;28;45418;-76
2023/02/07 02:58:05;;;;;;;;;11.50;11.50;;;;;2.05;74.43;102588.81;4971607;28;45331;-75
2023/02/07 03:00:55;;;;;;;;;21.00;21.00;;;;;2.04;73.50;102581.84;4967183;28;45491;-74
2023/02/07 03:03:39;;;;;;;;;16.75;16.75;;;;;2.01;73.79;102594.75;4971559;28;45442;-74
2023/02/07 03:06:22;;;;;;;;;20.00;20.00;;;;;1.97;74.50;102587.72;4975692;28;45195;-72
2023/02/07 03:09:22;;;;;;;;;19.50;18.75;;;;;1.88;74.73;102565.00;4976122;28;45351;-71
2023/02/07 03:11:56;;;;;;;;;17.50;16.50;;;;;1.95;73.82;102581.59;4972701;28;46307;-72
2023/02/07 03:14:33;;;;;;;;;16.25;16.25;;;;;1.87;73.95;102571.88;4955346;28;45291;-72
2023/02/07 03:17:03;;;;;;;;;19.00;19.00;;;;;1.92;74.95;102573.72;4970316;28;45496;-72
2023/02/07 03:19:39;;;;;;;;;19.00;19.00;;;;;1.78;74.37;102543.09;4960512;28;45502;-72
2023/02/07 03:22:10;;;;;;;;;13.25;13.25;;;;;1.90;74.66;102568.50;4955320;28;46323;-75
2023/02/07 03:24:40;;;;;;;;;17.50;17.50;;;;;1.89;74.84;102584.91;4960796;28;45997;-72
2023/02/07 03:27:10;;;;;;;;;21.25;19.25;;;;;1.86;74.77;102583.09;4958629;28;45459;-73
2023/02/07 03:29:38;;;;;;;;;16.75;16.00;;;;;1.84;74.86;102589.97;4954579;28;45483;-71
2023/02/07 03:32:07;;;;;;;;;20.50;20.50;;;;;1.84;74.26;102583.91;4954679;28;46229;-74
2023/02/07 03:34:41;;;;;;;;;17.75;17.25;;;;;1.83;74.99;102576.97;4959825;28;45316;-76
2023/02/07 03:37:24;;;;;;;;;5.75;5.00;;;;;1.80;74.97;102585.53;4964645;28;45482;-72
2023/02/07 03:39:49;;;;;;;;;20.25;19.75;;;;;1.79;74.43;102590.69;4974854;28;45370;-70
2023/02/07 03:42:38;;;;;;;;;14.75;14.50;;;;;1.77;74.93;102590.63;4974795;28;45604;-71
2023/02/07 03:45:09;;;;;;;;;18.00;18.00;;;;;1.70;74.44;102570.53;4963624;28;45359;-71
2023/02/07 03:47:35;;;;;;;;;21.00;20.00;;;;;1.70;75.48;102581.81;4965042;28;45236;-71
2023/02/07 03:50:00;;;;;;;;;19.25;18.00;;;;;1.65;75.27;102580.78;4955101;28;45443;-71
2023/02/07 03:52:25;;;;;;;;;19.50;18.00;;;;;1.70;74.36;102604.25;4960456;28;45300;-72
2023/02/07 03:54:51;;;;;;;;;16.50;16.50;;;;;1.67;75.07;102598.97;4973662;28;45380;-72
2023/02/07 03:57:16;;;;;;;;;19.00;16.25;;;;;1.63;75.01;102597.13;4968557;28;45396;-74
2023/02/07 03:59:41;;;;;;;;;20.25;20.25;;;;;1.57;74.74;102590.03;4970871;28;45571;-72
2023/02/07 04:02:07;;;;;;;;;19.00;17.75;;;;;1.63;75.35;102594.53;4954203;28;46452;-73
2023/02/07 04:04:32;;;;;;;;;19.25;18.75;;;;;1.56;75.49;102596.94;4954216;28;45552;-72
2023/02/07 04:06:57;;;;;;;;;16.25;16.25;;;;;1.59;75.84;102610.00;4962650;28;45824;-73
2023/02/07 04:09:23;;;;;;;;;17.25;17.25;;;;;1.56;74.92;102607.31;4973777;28;45652;-72
2023/02/07 04:11:49;;;;;;;;;19.00;19.00;;;;;1.55;75.54;102600.38;4973416;28;46133;-72
2023/02/07 04:14:14;;;;;;;;;18.25;18.25;;;;;1.53;75.91;102601.16;4962728;28;45397;-71
2023/02/07 04:16:40;;;;;;;;;15.00;15.00;;;;;1.53;75.92;102603.75;4968604;28;45374;-72
2023/02/07 04:19:05;;;;;;;;;23.75;22.75;;;;;1.50;76.21;102596.78;4967297;28;45634;-74
2023/02/07 04:21:30;;;;;;;;;20.75;20.50;;;;;1.41;75.52;102589.56;4972372;28;45435;-73
2023/02/07 04:23:56;;;;;;;;;21.25;21.25;;;;;1.50;75.50;102594.19;4968075;28;45532;-72
2023/02/07 04:26:21;;;;;;;;;23.25;23.25;;;;;1.48;75.68;102590.66;4973765;28;45520;-74
2023/02/07 04:28:46;;;;;;;;;22.25;22.25;;;;;1.45;76.03;102588.84;4957337;28;45671;-75
2023/02/07 04:31:12;;;;;;;;;18.50;18.50;;;;;1.48;76.13;102595.84;4973415;28;46257;-74
2023/02/07 04:33:37;;;;;;;;;20.00;18.25;;;;;1.45;75.96;102601.81;4974077;28;45499;-74
2023/02/07 04:36:03;;;;;;;;;19.00;19.00;;;;;1.48;75.88;102608.81;4962427;28;45247;-72
2023/02/07 04:38:29;;;;;;;;;21.50;21.50;;;;;1.48;75.85;102616.59;4966873;28;45369;-73
2023/02/07 04:40:59;;;;;;;;;20.00;18.25;;;;;1.49;75.69;102613.16;5015489;28;45393;-77
2023/02/07 04:43:24;;;;;;;;;19.50;19.50;;;;;1.48;75.26;102614.00;4969672;28;46190;-73
2023/02/07 04:45:49;;;;;;;;;16.00;15.50;;;;;1.45;76.07;102614.78;4975339;28;45323;-73
2023/02/07 04:48:15;;;;;;;;;18.75;18.75;;;;;1.48;75.17;102600.13;4967839;28;45443;-74
2023/02/07 04:50:40;;;;;;;;;16.00;16.00;;;;;1.49;75.35;102609.69;4973266;28;46120;-75
2023/02/07 04:53:06;;;;;;;;;18.00;16.00;;;;;1.46;75.45;102613.06;4983601;28;46113;-73
2023/02/07 04:55:33;;;;;;;;;22.75;19.50;;;;;1.27;75.11;102586.59;4964241;28;45364;-76
2023/02/07 04:57:58;;;;;;;;;19.50;18.75;;;;;1.45;75.50;102626.88;4973341;28;45326;-75
2023/02/07 05:00:23;;;;;;;;;21.50;21.25;;;;;1.44;75.77;102619.94;4971649;28;46388;-76
2023/02/07 05:02:49;;;;;;;;;20.75;19.75;;;;;1.42;76.26;102616.41;4973320;28;45398;-77
2023/02/07 05:05:14;;;;;;;;;21.75;21.75;;;;;1.41;75.52;102612.06;4973026;28;45561;-75
2023/02/07 05:07:40;;;;;;;;;16.75;16.00;;;;;1.35;76.04;102609.28;4974810;28;45229;-77
2023/02/07 05:10:05;;;;;;;;;23.00;22.00;;;;;1.42;76.39;102631.97;4976846;28;48641;-75
2023/02/07 05:12:30;;;;;;;;;22.75;22.00;;;;;1.44;75.77;102635.50;4971307;28;45527;-74
2023/02/07 05:14:56;;;;;;;;;23.25;19.75;;;;;1.42;75.87;102631.97;4973556;28;45330;-73
2023/02/07 05:17:21;;;;;;;;;18.75;16.50;;;;;1.43;75.68;102632.00;4971490;28;45394;-73
2023/02/07 05:19:47;;;;;;;;;22.75;18.75;;;;;1.40;76.28;102618.06;4973742;28;45929;-73
2023/02/07 05:22:12;;;;;;;;;22.00;21.00;;;;;1.41;76.09;102633.66;4973719;28;54428;-74
2023/02/07 05:24:38;;;;;;;;;22.75;20.00;;;;;1.16;75.07;102598.34;4973942;28;45464;-73
2023/02/07 05:27:03;;;;;;;;;19.75;19.00;;;;;1.38;75.98;102645.69;4974457;28;45327;-76
2023/02/07 05:29:29;;;;;;;;;19.00;19.00;;;;;1.35;75.56;102645.56;4974787;28;46046;-75
2023/02/07 05:34:38;;;;;;;;;16.75;15.75;;;;;1.31;75.92;102632.53;4972527;28;45452;-75
2023/02/07 05:37:03;;;;;;;;;19.00;18.75;;;;;1.28;75.90;102624.63;4954084;28;45652;-75
2023/02/07 05:39:30;;;;;;;;;20.75;20.00;;;;;1.35;75.54;102630.03;4953663;28;46040;-75
2023/02/07 05:41:55;;;;;;;;;19.25;19.25;;;;;1.32;75.80;102638.56;4953744;28;45428;-73
2023/02/07 05:44:21;;;;;;;;;20.75;20.75;;;;;1.25;75.47;102616.78;4959502;28;45432;-76
2023/02/07 05:46:46;;;;;;;;;18.00;18.00;;;;;1.31;75.82;102634.22;4973314;28;45304;-74
2023/02/07 05:49:11;;;;;;;;;19.00;19.00;;;;;1.27;75.94;102621.97;4972755;28;45401;-76
2023/02/07 05:51:37;;;;;;;;;19.00;19.00;;;;;1.33;76.02;102621.31;4969614;28;55543;-74
2023/02/07 05:54:02;;;;;;;;;18.50;17.00;;;;;1.26;75.50;102602.97;5054314;27;45375;-74
2023/02/07 05:56:27;;;;;;;;;22.25;22.00;;;;;1.29;75.89;102626.41;4956357;28;45178;-73
2023/02/07 05:58:53;;;;;;;;;24.00;24.00;;;;;1.19;75.69;102618.28;4958012;28;45489;-74
2023/02/07 06:01:18;;;;;;;;;20.75;20.75;;;;;1.25;75.38;102646.97;4967310;28;45413;-75
2023/02/07 06:03:44;;;;;;;;;16.25;16.25;;;;;1.22;75.74;102645.19;4970763;28;45363;-74
2023/02/07 06:06:09;;;;;;;;;19.25;19.25;;;;;1.23;76.28;102644.34;4972573;28;45177;-76
2023/02/07 06:08:34;;;;;;;;;21.00;20.50;;;;;1.21;75.73;102643.44;4970663;28;45437;-78
2023/02/07 06:11:00;;;;;;;;;19.75;19.25;;;;;1.20;75.65;102641.66;4972210;28;45459;-77
2023/02/07 06:13:25;;;;;;;;;19.00;19.00;;;;;1.17;75.99;102633.78;4972016;28;45421;-78
2023/02/07 06:15:50;;;;;;;;;16.50;16.50;;;;;1.14;75.84;102641.47;4972796;28;45542;-73
2023/02/07 06:18:16;;;;;;;;;19.50;19.50;;;;;1.14;75.35;102644.94;4972962;28;46009;-73
2023/02/07 06:20:41;;;;;;;;;20.00;18.75;;;;;1.15;75.54;102659.66;4973446;28;46385;-75
2023/02/07 06:23:06;;;;;;;;;19.75;19.75;;;;;1.14;75.50;102652.72;4976566;27;45611;-76
2023/02/07 06:25:32;;;;;;;;;18.25;15.75;;;;;1.15;75.43;102644.09;4973833;28;45221;-75
2023/02/07 06:27:57;;;;;;;;;19.00;18.25;;;;;1.13;75.13;102642.31;4952761;28;48474;-73
2023/02/07 06:30:23;;;;;;;;;20.00;20.00;;;;;1.10;75.58;102644.81;4963696;28;45490;-74
2023/02/07 06:32:48;;;;;;;;;22.75;20.50;;;;;1.14;75.78;102654.44;4970257;28;45444;-74
2023/02/07 06:35:14;;;;;;;;;15.00;15.00;;;;;1.14;75.01;102651.84;4972440;28;45464;-74
2023/02/07 06:37:39;;;;;;;;;19.00;18.00;;;;;1.13;74.98;102660.44;4972724;28;45358;-74
2023/02/07 06:40:05;;;;;;;;;16.25;16.25;;;;;1.13;75.64;102650.09;4972525;28;45723;-72
2023/02/07 06:42:30;;;;;;;;;17.25;17.25;;;;;1.13;75.23;102661.31;4972827;28;45409;-74
2023/02/07 06:44:56;;;;;;;;;17.50;16.25;;;;;1.12;75.40;102658.69;4964794;28;45426;-72
2023/02/07 06:47:21;;;;;;;;;22.00;20.75;;;;;1.10;75.44;102652.56;4971142;28;45379;-73
2023/02/07 06:49:47;;;;;;;;;15.75;15.75;;;;;1.07;75.03;102648.16;4972208;28;45420;-74
2023/02/07 06:52:12;;;;;;;;;19.50;18.00;;;;;1.05;75.10;102651.50;4983089;28;45469;-72
2023/02/07 06:54:37;;;;;;;;;21.00;19.00;;;;;1.04;75.02;102652.34;4978615;28;45168;-71
2023/02/07 06:57:03;;;;;;;;;22.75;17.00;;;;;1.09;74.97;102656.00;4968305;28;46886;-72
2023/02/07 06:59:28;;;;;;;;;22.25;19.50;;;;;1.07;74.39;102655.06;4980366;28;45365;-74
2023/02/07 07:01:53;;;;;;;;;19.00;19.00;;;;;1.12;74.67;102669.91;4975044;28;45283;-74
2023/02/07 07:04:19;;;;;;;;;6.00;5.75;;;;;0.98;74.68;102650.44;4974323;28;45304;-71
2023/02/07 07:06:45;;;;;;;;;6.25;5.75;;;;;1.11;74.51;102672.47;4974935;28;45287;-66
2023/02/07 07:09:11;;;;;;;;;19.75;18.50;;;;;1.09;74.81;102685.38;4980306;28;45362;-75
2023/02/07 07:11:41;;;;;;;;;19.25;18.00;;;;;0.85;74.49;102654.31;4977217;28;45278;-75
2023/02/07 07:14:08;;;;;;;;;31.50;31.50;;;;;1.06;74.31;102681.78;4964265;28;45393;-73
2023/02/07 07:16:34;;;;;;;;;61.25;51.75;;;;;1.02;74.34;102681.69;4977193;28;45307;-72
2023/02/07 07:19:00;;;;;;;;;20.25;18.75;;;;;1.04;74.57;102675.66;4978726;28;45557;-74
2023/02/07 07:21:26;;;;;;;;;22.75;20.75;;;;;1.08;74.53;102683.63;4968228;28;45620;-71
2023/02/07 07:23:52;;;;;;;;;23.75;20.00;;;;;1.09;74.15;102689.69;4962197;28;45333;-75
2023/02/07 07:26:18;;;;;;;;;22.75;19.00;;;;;1.10;74.28;102686.28;4981708;28;46327;-73
2023/02/07 07:28:43;;;;;;;;;15.25;15.25;;;;;1.08;74.18;102688.81;4992128;28;45710;-70
2023/02/07 07:31:09;;;;;;;;;15.50;15.50;;;;;1.07;74.38;102681.00;4993933;28;45598;-71
2023/02/07 07:33:35;;;;;;;;;16.00;15.50;;;;;1.05;74.37;102691.28;4994795;28;45538;-72
2023/02/07 07:36:02;;;;;;;;;18.00;17.75;;;;;1.05;74.17;102699.06;5013589;28;47655;-73
2023/02/07 07:38:28;;;;;;;;;15.50;15.50;;;;;1.05;74.16;102701.66;4995264;28;45357;-74
2023/02/07 07:40:54;;;;;;;;;18.00;18.00;;;;;1.06;73.96;102699.94;4996223;28;45169;-73
2023/02/07 07:43:20;;;;;;;;;21.00;21.00;;;;;1.04;73.88;102694.72;4996034;28;45644;-75
2023/02/07 07:45:50;;;;;;;;;15.00;15.00;;;;;0.97;74.00;102687.56;4996094;28;45348;-75
2023/02/07 07:48:15;;;;;;;;;21.50;21.50;;;;;0.99;73.74;102696.28;4995756;28;45360;-72
2023/02/07 07:50:41;;;;;;;;;13.00;13.00;;;;;1.01;73.83;102699.78;4994193;28;45292;-70
2023/02/07 07:53:06;;;;;;;;;18.25;17.00;;;;;0.97;73.61;102685.84;4995866;28;45553;-73
2023/02/07 07:55:31;;;;;;;;;20.00;20.00;;;;;0.99;73.75;102683.31;4995012;28;45945;-71
2023/02/07 07:57:57;;;;;;;;;16.25;16.25;;;;;1.04;73.56;102696.41;4994293;28;45298;-71
2023/02/07 08:00:22;;;;;;;;;16.75;16.75;;;;;1.02;73.77;102711.91;4994211;28;45742;-71
2023/02/07 08:02:48;;;;;;;;;12.75;12.75;;;;;1.01;73.43;102704.97;4995755;28;45240;-73
2023/02/07 08:05:13;;;;;;;;;21.00;20.50;;;;;1.07;73.36;102699.13;4994000;28;45324;-71
2023/02/07 08:07:38;;;;;;;;;16.75;16.75;;;;;1.06;73.11;102700.81;4993845;28;45742;-71
2023/02/07 08:10:04;;;;;;;;;21.50;20.50;;;;;1.09;73.19;102700.06;4993890;28;45490;-72
2023/02/07 08:12:30;;;;;;;;;16.25;16.25;;;;;1.08;72.73;102699.16;4994058;28;45467;-72
2023/02/07 08:14:55;;;;;;;;;15.25;15.25;;;;;0.98;72.64;102674.63;4994517;28;46357;-71
2023/02/07 08:17:21;;;;;;;;;13.50;13.50;;;;;1.12;73.05;102693.25;4995154;28;45311;-71
2023/02/07 08:19:46;;;;;;;;;16.00;15.00;;;;;1.11;73.24;102693.22;4994477;28;45157;-75
2023/02/07 08:22:13;;;;;;;;;18.00;18.00;;;;;1.14;72.75;102701.97;4994353;28;45639;-74
2023/02/07 08:24:38;;;;;;;;;18.50;16.75;;;;;1.21;72.49;102710.84;4992869;28;48081;-71
2023/02/07 08:27:03;;;;;;;;;12.50;12.50;;;;;1.23;72.85;102703.09;4992751;28;45314;-73
2023/02/07 08:29:29;;;;;;;;;8.75;8.75;;;;;1.04;72.39;102683.44;4995497;28;45712;-72
2023/02/07 08:31:54;;;;;;;;;17.25;17.25;;;;;1.01;71.90;102668.69;4992924;28;45450;-74
2023/02/07 08:34:23;;;;;;;;;15.00;15.00;;;;;1.24;71.87;102705.75;4993706;28;45402;-72
2023/02/07 08:36:49;;;;;;;;;12.50;12.50;;;;;1.24;71.60;102710.94;4993254;28;45264;-74
2023/02/07 08:39:14;;;;;;;;;15.00;14.25;;;;;1.25;71.30;102711.81;4993823;28;45168;-73
2023/02/07 08:41:40;;;;;;;;;61.50;50.25;;;;;1.27;71.69;102707.56;4994235;28;45287;-73
2023/02/07 08:44:05;;;;;;;;;19.00;19.00;;;;;1.30;71.80;102718.03;4994230;28;45854;-72
2023/02/07 08:46:31;;;;;;;;;19.00;16.75;;;;;1.28;71.11;102724.88;4994462;28;45231;-73
2023/02/07 08:48:56;;;;;;;;;14.25;14.25;;;;;1.31;71.60;102727.56;4994237;28;45319;-72
2023/02/07 08:51:21;;;;;;;;;11.00;11.00;;;;;1.36;71.26;102710.44;4994093;28;45284;-75
2023/02/07 08:53:47;;;;;;;;;16.25;16.25;;;;;1.35;70.71;102713.88;4993391;28;45389;-75
2023/02/07 08:56:12;;;;;;;;;15.75;15.75;;;;;1.30;70.77;102700.78;4993117;28;45466;-70
2023/02/07 08:58:39;;;;;;;;;16.50;16.50;;;;;1.28;70.20;102689.47;4994150;28;45435;-72
2023/02/07 09:01:09;;;;;;;;;15.50;14.75;;;;;1.30;70.70;102690.41;4994353;28;45511;-73
2023/02/07 09:03:34;;;;;;;;;16.00;16.00;;;;;1.29;70.34;102699.00;4994881;28;46192;-73
2023/02/07 09:06:00;;;;;;;;;19.25;17.25;;;;;1.35;70.31;102687.06;4993735;28;45392;-73
2023/02/07 09:08:25;;;;;;;;;14.50;14.50;;;;;1.44;70.05;102714.16;4993876;28;45215;-72
2023/02/07 09:10:52;;;;;;;;;16.00;15.25;;;;;1.44;70.28;102700.31;4993664;28;45199;-70
2023/02/07 09:13:17;;;;;;;;;13.25;13.25;;;;;1.52;70.42;102710.94;4993131;28;46452;-72
2023/02/07 09:15:42;;;;;;;;;12.75;12.75;;;;;1.54;69.67;102714.44;4993251;28;45249;-72
2023/02/07 09:18:07;;;;;;;;;17.75;17.75;;;;;1.48;70.27;102709.06;4992689;28;45317;-72
2023/02/07 09:20:33;;;;;;;;;12.00;12.00;;;;;1.59;69.70;102716.38;4993268;28;45343;-71
2023/02/07 09:23:16;;;;;;;;;17.75;17.75;;;;;1.66;69.84;102721.75;4993061;28;57008;-72
2023/02/07 09:25:42;;;;;;;;;19.50;19.50;;;;;1.64;68.87;102724.31;4991888;28;45287;-72
2023/02/07 09:28:08;;;;;;;;;19.25;19.25;;;;;1.68;69.31;102728.78;4991834;28;45301;-70
2023/02/07 09:30:33;;;;;;;;;15.50;15.25;;;;;1.73;68.50;102740.16;4993943;28;45864;-73
2023/02/07 09:32:59;;;;;;;;;15.25;15.25;;;;;1.76;68.99;102736.78;4993058;28;45455;-71
2023/02/07 09:35:24;;;;;;;;;5.00;5.00;;;;;1.80;68.17;102741.22;4993412;28;45297;-72
2023/02/07 09:37:53;;;;;;;;;12.25;12.25;;;;;1.85;68.79;102742.25;4993248;28;45839;-73
2023/02/07 09:40:19;;;;;;;;;12.25;12.25;;;;;1.87;68.28;102742.31;4993245;28;45370;-72
2023/02/07 09:43:01;;;;;;;;;13.00;13.00;;;;;1.89;68.13;102758.81;4991890;28;48311;-70
2023/02/07 09:45:33;;;;;;;;;13.75;13.75;;;;;1.92;67.61;102760.59;4992868;28;45392;-71
2023/02/07 09:48:26;;;;;;;;;17.75;16.00;;;;;1.90;68.16;102745.88;4993175;28;45389;-73
2023/02/07 09:50:56;;;;;;;;;17.75;17.75;;;;;2.02;67.19;102753.16;5010369;28;45323;-71
2023/02/07 09:53:33;;;;;;;;;59.50;49.50;;;;;1.89;67.18;102735.47;4992919;28;45447;-73
2023/02/07 09:56:01;;;;;;;;;16.50;16.50;;;;;2.09;67.67;102764.59;4993231;28;45181;-73
2023/02/07 09:58:46;;;;;;;;;16.75;16.75;;;;;2.16;67.83;102756.19;4993108;28;45440;-71
2023/02/07 10:01:20;;;;;;;;;16.75;16.75;;;;;2.24;67.22;102771.97;4993273;28;45543;-73
2023/02/07 10:04:04;;;;;;;;;14.50;14.50;;;;;2.29;67.66;102775.59;4992781;28;46337;-71
2023/02/07 10:06:29;;;;;;;;;13.25;13.25;;;;;2.32;66.54;102759.22;4992770;28;45269;-71
2023/02/07 10:08:58;;;;;;;;;16.50;16.50;;;;;2.38;66.41;102769.81;4992940;28;45386;-70
2023/02/07 10:12:01;;;;;;;;;19.75;18.50;;;;;2.42;66.32;102770.75;4993012;28;45264;-71
2023/02/07 10:14:45;;;;;;;;;17.75;17.00;;;;;2.50;65.77;102765.78;4992429;28;45927;-72
2023/02/07 10:17:34;;;;;;;;;33.50;32.50;;;;;2.57;66.15;102771.19;4992530;28;45330;-73
2023/02/07 10:20:05;;;;;;;;;25.75;25.75;;;;;2.62;65.72;102776.53;4992935;28;45351;-71
2023/02/07 10:22:58;;;;;;;;;17.50;17.25;;;;;2.66;66.53;102773.19;4993256;28;45266;-72
2023/02/07 10:25:43;;;;;;;;;34.00;32.50;;;;;2.71;65.51;102774.19;4992224;28;46408;-71
2023/02/07 10:28:14;;;;;;;;;19.25;18.50;;;;;2.77;65.57;102776.97;4992455;28;45326;-71
2023/02/07 10:30:46;;;;;;;;;24.25;23.25;;;;;2.78;65.53;102765.72;4993133;28;45343;-72
2023/02/07 10:33:14;;;;;;;;;19.75;18.25;;;;;2.85;65.27;102771.09;4994268;28;45431;-72
2023/02/07 10:35:39;;;;;;;;;17.25;17.25;;;;;2.81;64.59;102759.75;4995477;28;46463;-71
2023/02/07 10:38:22;;;;;;;;;23.25;21.75;;;;;2.91;65.78;102766.06;4995937;28;45293;-72
2023/02/07 10:40:58;;;;;;;;;17.25;16.25;;;;;2.97;65.31;102760.16;4998668;28;45352;-72
2023/02/07 10:43:28;;;;;;;;;30.00;29.25;;;;;3.05;65.78;102750.84;4999055;28;45327;-72
2023/02/07 10:46:04;;;;;;;;;37.25;34.75;;;;;3.13;64.98;102753.63;4981065;28;45732;-73
2023/02/07 10:48:31;;;;;;;;;36.50;33.50;;;;;3.19;64.74;102748.59;4978054;28;45298;-76
2023/02/07 10:50:58;;;;;;;;;27.75;27.75;;;;;3.29;63.55;102750.59;4977478;28;45187;-71
2023/02/07 10:53:46;;;;;;;;;26.75;25.75;;;;;3.33;64.74;102759.34;4978395;28;45390;-72
2023/02/07 10:56:51;;;;;;;;;18.50;18.25;;;;;3.34;63.58;102751.59;4977589;28;45344;-75
2023/02/07 10:59:44;;;;;;;;;13.00;13.00;;;;;3.36;63.74;102756.81;4978576;28;45298;-73
2023/02/07 11:02:27;;;;;;;;;17.50;17.50;;;;;3.34;62.79;102756.78;4978228;28;45336;-74
2023/02/07 11:04:54;;;;;;;;;23.75;21.25;;;;;3.33;63.05;102755.03;4978401;28;45612;-74
2023/02/07 11:07:20;;;;;;;;;21.50;20.00;;;;;3.35;63.13;102755.94;4977841;28;45469;-73
2023/02/07 11:09:47;;;;;;;;;16.75;16.75;;;;;3.41;63.50;102756.94;4977860;28;45473;-72
2023/02/07 11:12:20;;;;;;;;;37.00;34.25;;;;;3.47;63.19;102751.88;4978538;28;45423;-72
2023/02/07 11:15:03;;;;;;;;;33.50;33.50;;;;;3.52;62.53;102750.28;4977382;28;45342;-73
2023/02/07 11:17:29;;;;;;;;;24.00;24.00;;;;;3.57;62.56;102751.25;4975698;28;46328;-72
2023/02/07 11:19:55;;;;;;;;;30.25;29.25;;;;;3.65;63.09;102754.03;4974296;28;46340;-72
2023/02/07 11:22:23;;;;;;;;;23.75;23.75;;;;;3.68;62.79;102751.50;4975977;28;45327;-73
2023/02/07 11:24:58;;;;;;;;;54.25;44.50;;;;;3.71;62.65;102736.00;4976161;28;45452;-74
2023/02/07 11:27:24;;;;;;;;;21.00;21.00;;;;;3.83;61.68;102735.38;4975675;28;46465;-74